sensor_id;sensor_type;location;lat;lon;timestamp;temperature;humidity
77582;DHT22;66726;52.388;9.986;2023-02-26T00:01:45;0.50;95.00
77582;DHT22;66726;52.388;9.986;2023-02-26T00:04:16;0.40;94.70
77582;DHT22;66726;52.388;9.986;2023-02-26T00:06:44;0.50;95.20
77582;DHT22;66726;52.388;9.986;2023-02-26T00:09:22;0.50;95.10
77582;DHT22;66726;52.388;9.986;2023-02-26T00:11:52;0.50;94.70
77582;DHT22;66726;52.388;9.986;2023-02-26T00:14:21;0.50;94.90
77582;DHT22;66726;52.388;9.986;2023-02-26T00:16:56;0.50;95.10
77582;DHT22;66726;52.388;9.986;2023-02-26T00:19:42;0.40;94.70
77582;DHT22;66726;52.388;9.986;2023-02-26T00:22:11;0.40;94.70
77582;DHT22;66726;52.388;9.986;2023-02-26T00:24:39;0.40;94.90
77582;DHT22;66726;52.388;9.986;2023-02-26T00:27:09;0.40;94.90
77582;DHT22;66726;52.388;9.986;2023-02-26T00:29:39;0.30;94.90
77582;DHT22;66726;52.388;9.986;2023-02-26T00:32:08;0.30;95.00
77582;DHT22;66726;52.388;9.986;2023-02-26T00:34:37;0.40;95.10
77582;DHT22;66726;52.388;9.986;2023-02-26T00:37:16;0.30;95.20
77582;DHT22;66726;52.388;9.986;2023-02-26T00:40:02;0.30;95.40
77582;DHT22;66726;52.388;9.986;2023-02-26T00:42:39;0.20;95.60
77582;DHT22;66726;52.388;9.986;2023-02-26T00:45:13;0.30;95.80
77582;DHT22;66726;52.388;9.986;2023-02-26T00:47:48;0.20;95.80
77582;DHT22;66726;52.388;9.986;2023-02-26T00:50:21;0.20;95.80
77582;DHT22;66726;52.388;9.986;2023-02-26T00:53:02;0.20;95.90
77582;DHT22;66726;52.388;9.986;2023-02-26T00:55:35;0.20;96.10
77582;DHT22;66726;52.388;9.986;2023-02-26T00:58:04;0.20;96.20
77582;DHT22;66726;52.388;9.986;2023-02-26T01:00:32;0.20;96.30
77582;DHT22;66726;52.388;9.986;2023-02-26T01:03:01;0.20;96.20
77582;DHT22;66726;52.388;9.986;2023-02-26T01:05:30;0.10;96.30
77582;DHT22;66726;52.388;9.986;2023-02-26T01:08:03;0.20;96.60
77582;DHT22;66726;52.388;9.986;2023-02-26T01:10:36;0.20;96.60
77582;DHT22;66726;52.388;9.986;2023-02-26T01:13:05;0.20;96.50
77582;DHT22;66726;52.388;9.986;2023-02-26T01:15:35;0.10;96.90
77582;DHT22;66726;52.388;9.986;2023-02-26T01:18:06;0.10;97.00
77582;DHT22;66726;52.388;9.986;2023-02-26T01:20:45;0.00;97.00
77582;DHT22;66726;52.388;9.986;2023-02-26T01:23:22;0.10;97.30
77582;DHT22;66726;52.388;9.986;2023-02-26T01:25:54;0.10;97.10
77582;DHT22;66726;52.388;9.986;2023-02-26T01:28:26;0.20;97.10
77582;DHT22;66726;52.388;9.986;2023-02-26T01:30:58;0.20;97.10
77582;DHT22;66726;52.388;9.986;2023-02-26T01:33:34;0.10;97.40
77582;DHT22;66726;52.388;9.986;2023-02-26T01:36:10;0.20;97.30
77582;DHT22;66726;52.388;9.986;2023-02-26T01:38:51;0.10;97.40
77582;DHT22;66726;52.388;9.986;2023-02-26T01:41:30;0.10;97.60
77582;DHT22;66726;52.388;9.986;2023-02-26T01:44:12;0.10;97.70
77582;DHT22;66726;52.388;9.986;2023-02-26T01:46:56;0.10;97.60
77582;DHT22;66726;52.388;9.986;2023-02-26T01:49:33;0.10;97.90
77582;DHT22;66726;52.388;9.986;2023-02-26T01:52:03;0.00;97.90
77582;DHT22;66726;52.388;9.986;2023-02-26T01:54:36;0.00;98.10
77582;DHT22;66726;52.388;9.986;2023-02-26T01:57:08;0.00;98.30
77582;DHT22;66726;52.388;9.986;2023-02-26T01:59:41;0.00;98.50
77582;DHT22;66726;52.388;9.986;2023-02-26T02:02:13;0.00;98.50
77582;DHT22;66726;52.388;9.986;2023-02-26T02:04:47;0.10;98.50
77582;DHT22;66726;52.388;9.986;2023-02-26T02:07:17;0.00;98.40
77582;DHT22;66726;52.388;9.986;2023-02-26T02:09:47;0.00;98.50
77582;DHT22;66726;52.388;9.986;2023-02-26T02:12:25;0.00;98.60
77582;DHT22;66726;52.388;9.986;2023-02-26T02:15:07;0.00;98.90
77582;DHT22;66726;52.388;9.986;2023-02-26T02:17:45;0.10;98.70
77582;DHT22;66726;52.388;9.986;2023-02-26T02:20:48;0.00;99.00
77582;DHT22;66726;52.388;9.986;2023-02-26T02:23:31;0.10;98.80
77582;DHT22;66726;52.388;9.986;2023-02-26T02:26:31;0.10;98.90
77582;DHT22;66726;52.388;9.986;2023-02-26T02:30:02;0.10;98.80
77582;DHT22;66726;52.388;9.986;2023-02-26T02:32:44;0.10;99.00
77582;DHT22;66726;52.388;9.986;2023-02-26T02:35:20;0.10;99.00
77582;DHT22;66726;52.388;9.986;2023-02-26T02:37:56;0.00;99.10
77582;DHT22;66726;52.388;9.986;2023-02-26T02:40:29;0.00;99.10
77582;DHT22;66726;52.388;9.986;2023-02-26T02:43:03;0.00;99.40
77582;DHT22;66726;52.388;9.986;2023-02-26T02:45:40;0.00;99.30
77582;DHT22;66726;52.388;9.986;2023-02-26T02:48:16;0.10;99.20
77582;DHT22;66726;52.388;9.986;2023-02-26T02:50:54;0.00;99.30
77582;DHT22;66726;52.388;9.986;2023-02-26T02:53:29;0.00;99.60
77582;DHT22;66726;52.388;9.986;2023-02-26T02:56:06;0.00;99.50
77582;DHT22;66726;52.388;9.986;2023-02-26T02:58:43;-0.10;99.70
77582;DHT22;66726;52.388;9.986;2023-02-26T03:01:18;0.00;99.60
77582;DHT22;66726;52.388;9.986;2023-02-26T03:03:55;0.00;99.50
77582;DHT22;66726;52.388;9.986;2023-02-26T03:06:26;-0.10;99.40
77582;DHT22;66726;52.388;9.986;2023-02-26T03:08:55;0.00;99.40
77582;DHT22;66726;52.388;9.986;2023-02-26T03:11:23;0.00;99.60
77582;DHT22;66726;52.388;9.986;2023-02-26T03:13:51;0.10;99.50
77582;DHT22;66726;52.388;9.986;2023-02-26T03:16:32;0.00;99.60
77582;DHT22;66726;52.388;9.986;2023-02-26T03:19:20;0.00;99.50
77582;DHT22;66726;52.388;9.986;2023-02-26T03:21:57;0.00;99.30
77582;DHT22;66726;52.388;9.986;2023-02-26T03:24:34;0.00;99.50
77582;DHT22;66726;52.388;9.986;2023-02-26T03:27:09;0.00;99.60
77582;DHT22;66726;52.388;9.986;2023-02-26T03:29:46;0.00;99.40
77582;DHT22;66726;52.388;9.986;2023-02-26T03:32:23;0.10;99.50
77582;DHT22;66726;52.388;9.986;2023-02-26T03:35:03;0.10;99.50
77582;DHT22;66726;52.388;9.986;2023-02-26T03:37:37;0.10;99.40
77582;DHT22;66726;52.388;9.986;2023-02-26T03:40:12;0.10;99.30
77582;DHT22;66726;52.388;9.986;2023-02-26T03:42:48;0.00;99.20
77582;DHT22;66726;52.388;9.986;2023-02-26T03:45:24;0.10;99.50
77582;DHT22;66726;52.388;9.986;2023-02-26T03:47:57;0.10;99.30
77582;DHT22;66726;52.388;9.986;2023-02-26T03:50:31;0.00;99.40
77582;DHT22;66726;52.388;9.986;2023-02-26T03:53:03;0.00;99.50
77582;DHT22;66726;52.388;9.986;2023-02-26T03:55:38;0.00;99.60
77582;DHT22;66726;52.388;9.986;2023-02-26T03:58:12;0.00;99.40
77582;DHT22;66726;52.388;9.986;2023-02-26T04:00:43;0.00;99.30
77582;DHT22;66726;52.388;9.986;2023-02-26T04:03:20;0.00;99.20
77582;DHT22;66726;52.388;9.986;2023-02-26T04:05:56;0.00;99.50
77582;DHT22;66726;52.388;9.986;2023-02-26T04:08:28;0.10;99.20
77582;DHT22;66726;52.388;9.986;2023-02-26T04:11:02;0.00;99.10
77582;DHT22;66726;52.388;9.986;2023-02-26T04:13:33;0.00;99.20
77582;DHT22;66726;52.388;9.986;2023-02-26T04:16:02;0.00;99.30
77582;DHT22;66726;52.388;9.986;2023-02-26T04:18:31;-0.10;99.20
77582;DHT22;66726;52.388;9.986;2023-02-26T04:21:00;0.10;99.20
77582;DHT22;66726;52.388;9.986;2023-02-26T04:23:28;0.00;98.90
77582;DHT22;66726;52.388;9.986;2023-02-26T04:25:57;0.10;99.00
77582;DHT22;66726;52.388;9.986;2023-02-26T04:28:25;0.10;98.90
77582;DHT22;66726;52.388;9.986;2023-02-26T04:30:53;0.10;98.90
77582;DHT22;66726;52.388;9.986;2023-02-26T04:33:21;0.10;98.70
77582;DHT22;66726;52.388;9.986;2023-02-26T04:35:49;0.10;98.70
77582;DHT22;66726;52.388;9.986;2023-02-26T04:38:19;0.10;98.90
77582;DHT22;66726;52.388;9.986;2023-02-26T04:40:48;0.20;98.70
77582;DHT22;66726;52.388;9.986;2023-02-26T04:43:16;0.10;98.60
77582;DHT22;66726;52.388;9.986;2023-02-26T04:45:45;0.10;98.60
77582;DHT22;66726;52.388;9.986;2023-02-26T04:48:15;0.10;98.80
77582;DHT22;66726;52.388;9.986;2023-02-26T04:50:44;0.10;98.70
77582;DHT22;66726;52.388;9.986;2023-02-26T04:53:13;0.10;98.60
77582;DHT22;66726;52.388;9.986;2023-02-26T04:55:42;0.00;98.40
77582;DHT22;66726;52.388;9.986;2023-02-26T04:58:10;0.10;98.60
77582;DHT22;66726;52.388;9.986;2023-02-26T05:00:38;0.10;98.50
77582;DHT22;66726;52.388;9.986;2023-02-26T05:03:06;0.10;98.60
77582;DHT22;66726;52.388;9.986;2023-02-26T05:05:35;0.10;98.40
77582;DHT22;66726;52.388;9.986;2023-02-26T05:08:03;0.10;98.40
77582;DHT22;66726;52.388;9.986;2023-02-26T05:10:31;0.20;98.30
77582;DHT22;66726;52.388;9.986;2023-02-26T05:13:01;0.20;97.90
77582;DHT22;66726;52.388;9.986;2023-02-26T05:15:29;0.10;98.00
77582;DHT22;66726;52.388;9.986;2023-02-26T05:17:57;0.10;97.90
77582;DHT22;66726;52.388;9.986;2023-02-26T05:20:26;0.10;98.20
77582;DHT22;66726;52.388;9.986;2023-02-26T05:22:54;0.10;97.90
77582;DHT22;66726;52.388;9.986;2023-02-26T05:25:23;0.10;97.90
77582;DHT22;66726;52.388;9.986;2023-02-26T05:27:51;0.10;97.70
77582;DHT22;66726;52.388;9.986;2023-02-26T05:30:20;0.10;97.60
77582;DHT22;66726;52.388;9.986;2023-02-26T05:32:49;0.10;97.40
77582;DHT22;66726;52.388;9.986;2023-02-26T05:35:17;0.00;97.40
77582;DHT22;66726;52.388;9.986;2023-02-26T05:37:45;0.10;97.50
77582;DHT22;66726;52.388;9.986;2023-02-26T05:40:14;0.00;97.30
77582;DHT22;66726;52.388;9.986;2023-02-26T05:42:42;0.00;97.30
77582;DHT22;66726;52.388;9.986;2023-02-26T05:45:10;0.00;97.20
77582;DHT22;66726;52.388;9.986;2023-02-26T05:47:40;0.00;97.30
77582;DHT22;66726;52.388;9.986;2023-02-26T05:50:09;-0.10;97.10
77582;DHT22;66726;52.388;9.986;2023-02-26T05:52:38;-0.10;97.20
77582;DHT22;66726;52.388;9.986;2023-02-26T05:55:08;-0.10;97.20
77582;DHT22;66726;52.388;9.986;2023-02-26T05:57:36;-0.10;97.20
77582;DHT22;66726;52.388;9.986;2023-02-26T06:00:06;-0.20;97.10
77582;DHT22;66726;52.388;9.986;2023-02-26T06:02:35;-0.20;97.10
77582;DHT22;66726;52.388;9.986;2023-02-26T06:05:06;-0.20;97.10
77582;DHT22;66726;52.388;9.986;2023-02-26T06:07:36;-0.30;97.00
77582;DHT22;66726;52.388;9.986;2023-02-26T06:10:04;-0.30;97.20
77582;DHT22;66726;52.388;9.986;2023-02-26T06:12:34;-0.30;97.00
77582;DHT22;66726;52.388;9.986;2023-02-26T06:15:03;-0.30;96.90
77582;DHT22;66726;52.388;9.986;2023-02-26T06:17:33;-0.40;96.90
77582;DHT22;66726;52.388;9.986;2023-02-26T06:20:05;-0.40;97.00
77582;DHT22;66726;52.388;9.986;2023-02-26T06:22:33;-0.40;97.00
77582;DHT22;66726;52.388;9.986;2023-02-26T06:25:02;-0.40;97.00
77582;DHT22;66726;52.388;9.986;2023-02-26T06:27:30;-0.40;96.90
77582;DHT22;66726;52.388;9.986;2023-02-26T06:29:58;-0.50;96.80
77582;DHT22;66726;52.388;9.986;2023-02-26T06:32:26;-0.40;96.70
77582;DHT22;66726;52.388;9.986;2023-02-26T06:34:56;-0.40;96.80
77582;DHT22;66726;52.388;9.986;2023-02-26T06:37:26;-0.30;97.00
77582;DHT22;66726;52.388;9.986;2023-02-26T06:39:54;-0.30;96.90
77582;DHT22;66726;52.388;9.986;2023-02-26T06:42:22;-0.40;96.70
77582;DHT22;66726;52.388;9.986;2023-02-26T06:44:50;-0.40;96.50
77582;DHT22;66726;52.388;9.986;2023-02-26T06:47:18;-0.30;96.70
77582;DHT22;66726;52.388;9.986;2023-02-26T06:49:46;-0.40;96.60
77582;DHT22;66726;52.388;9.986;2023-02-26T06:52:14;-0.30;96.50
77582;DHT22;66726;52.388;9.986;2023-02-26T06:54:44;-0.40;96.50
77582;DHT22;66726;52.388;9.986;2023-02-26T06:57:12;-0.40;96.60
77582;DHT22;66726;52.388;9.986;2023-02-26T06:59:40;-0.40;96.50
77582;DHT22;66726;52.388;9.986;2023-02-26T07:02:14;-0.40;96.70
77582;DHT22;66726;52.388;9.986;2023-02-26T07:04:44;-0.40;96.50
77582;DHT22;66726;52.388;9.986;2023-02-26T07:07:13;-0.30;96.50
77582;DHT22;66726;52.388;9.986;2023-02-26T07:09:42;-0.30;96.30
77582;DHT22;66726;52.388;9.986;2023-02-26T07:12:11;-0.30;96.70
77582;DHT22;66726;52.388;9.986;2023-02-26T07:14:40;-0.20;96.60
77582;DHT22;66726;52.388;9.986;2023-02-26T07:17:10;-0.30;96.50
77582;DHT22;66726;52.388;9.986;2023-02-26T07:19:46;-0.20;96.40
77582;DHT22;66726;52.388;9.986;2023-02-26T07:22:15;-0.20;96.20
77582;DHT22;66726;52.388;9.986;2023-02-26T07:24:48;-0.30;96.20
77582;DHT22;66726;52.388;9.986;2023-02-26T07:27:16;-0.30;96.40
77582;DHT22;66726;52.388;9.986;2023-02-26T07:29:44;-0.30;96.60
77582;DHT22;66726;52.388;9.986;2023-02-26T07:32:13;-0.30;96.50
77582;DHT22;66726;52.388;9.986;2023-02-26T07:34:41;-0.30;96.40
77582;DHT22;66726;52.388;9.986;2023-02-26T07:37:09;-0.30;96.20
77582;DHT22;66726;52.388;9.986;2023-02-26T07:39:37;-0.40;96.20
77582;DHT22;66726;52.388;9.986;2023-02-26T07:42:07;-0.40;96.10
77582;DHT22;66726;52.388;9.986;2023-02-26T07:44:35;-0.40;96.10
77582;DHT22;66726;52.388;9.986;2023-02-26T07:47:03;-0.30;96.30
77582;DHT22;66726;52.388;9.986;2023-02-26T07:49:32;-0.30;96.30
77582;DHT22;66726;52.388;9.986;2023-02-26T07:52:01;-0.20;96.10
77582;DHT22;66726;52.388;9.986;2023-02-26T07:54:29;-0.30;96.00
77582;DHT22;66726;52.388;9.986;2023-02-26T07:56:57;-0.20;96.30
77582;DHT22;66726;52.388;9.986;2023-02-26T07:59:27;-0.20;95.80
77582;DHT22;66726;52.388;9.986;2023-02-26T08:01:55;-0.10;95.90
77582;DHT22;66726;52.388;9.986;2023-02-26T08:04:23;0.00;96.10
77582;DHT22;66726;52.388;9.986;2023-02-26T08:06:52;0.00;95.70
77582;DHT22;66726;52.388;9.986;2023-02-26T08:09:20;-0.10;95.40
77582;DHT22;66726;52.388;9.986;2023-02-26T08:11:49;-0.10;95.30
77582;DHT22;66726;52.388;9.986;2023-02-26T08:14:17;-0.10;95.80
77582;DHT22;66726;52.388;9.986;2023-02-26T08:16:46;0.00;95.60
77582;DHT22;66726;52.388;9.986;2023-02-26T08:19:14;0.10;95.50
77582;DHT22;66726;52.388;9.986;2023-02-26T08:21:43;0.10;95.30
77582;DHT22;66726;52.388;9.986;2023-02-26T08:24:12;0.10;95.50
77582;DHT22;66726;52.388;9.986;2023-02-26T08:26:40;0.30;95.20
77582;DHT22;66726;52.388;9.986;2023-02-26T08:29:08;0.30;94.80
77582;DHT22;66726;52.388;9.986;2023-02-26T08:31:37;0.40;95.00
77582;DHT22;66726;52.388;9.986;2023-02-26T08:34:06;0.50;94.50
77582;DHT22;66726;52.388;9.986;2023-02-26T08:36:34;0.60;94.40
77582;DHT22;66726;52.388;9.986;2023-02-26T08:39:02;0.70;94.30
77582;DHT22;66726;52.388;9.986;2023-02-26T08:41:31;0.90;94.30
77582;DHT22;66726;52.388;9.986;2023-02-26T08:43:59;0.90;93.70
77582;DHT22;66726;52.388;9.986;2023-02-26T08:46:27;1.00;93.20
77582;DHT22;66726;52.388;9.986;2023-02-26T08:48:56;1.10;93.30
77582;DHT22;66726;52.388;9.986;2023-02-26T08:51:25;1.30;93.50
77582;DHT22;66726;52.388;9.986;2023-02-26T08:53:54;1.40;92.70
77582;DHT22;66726;52.388;9.986;2023-02-26T08:56:22;1.40;92.20
77582;DHT22;66726;52.388;9.986;2023-02-26T08:58:51;1.40;92.30
77582;DHT22;66726;52.388;9.986;2023-02-26T09:01:19;1.50;92.10
77582;DHT22;66726;52.388;9.986;2023-02-26T09:03:47;1.60;92.10
77582;DHT22;66726;52.388;9.986;2023-02-26T09:06:15;1.90;91.70
77582;DHT22;66726;52.388;9.986;2023-02-26T09:08:44;2.00;91.40
77582;DHT22;66726;52.388;9.986;2023-02-26T09:11:13;2.10;91.30
77582;DHT22;66726;52.388;9.986;2023-02-26T09:13:41;2.20;90.90
77582;DHT22;66726;52.388;9.986;2023-02-26T09:16:09;2.20;90.60
77582;DHT22;66726;52.388;9.986;2023-02-26T09:18:37;2.30;90.40
77582;DHT22;66726;52.388;9.986;2023-02-26T09:21:06;2.20;90.00
77582;DHT22;66726;52.388;9.986;2023-02-26T09:23:34;2.30;90.50
77582;DHT22;66726;52.388;9.986;2023-02-26T09:26:04;2.40;90.00
77582;DHT22;66726;52.388;9.986;2023-02-26T09:28:34;2.50;90.30
77582;DHT22;66726;52.388;9.986;2023-02-26T09:31:02;2.50;90.20
77582;DHT22;66726;52.388;9.986;2023-02-26T09:33:33;2.50;87.80
77582;DHT22;66726;52.388;9.986;2023-02-26T09:36:01;2.60;88.20
77582;DHT22;66726;52.388;9.986;2023-02-26T09:38:30;2.70;89.50
77582;DHT22;66726;52.388;9.986;2023-02-26T09:41:00;2.70;89.50
77582;DHT22;66726;52.388;9.986;2023-02-26T09:44:06;2.80;85.50
77582;DHT22;66726;52.388;9.986;2023-02-26T09:46:47;2.80;83.80
77582;DHT22;66726;52.388;9.986;2023-02-26T09:49:30;2.80;84.40
77582;DHT22;66726;52.388;9.986;2023-02-26T09:52:15;2.90;85.30
77582;DHT22;66726;52.388;9.986;2023-02-26T09:54:51;3.00;82.30
77582;DHT22;66726;52.388;9.986;2023-02-26T09:57:31;3.10;81.20
77582;DHT22;66726;52.388;9.986;2023-02-26T10:00:03;3.10;80.70
77582;DHT22;66726;52.388;9.986;2023-02-26T10:02:54;3.30;79.40
77582;DHT22;66726;52.388;9.986;2023-02-26T10:05:38;3.20;77.30
77582;DHT22;66726;52.388;9.986;2023-02-26T10:08:14;3.40;78.20
77582;DHT22;66726;52.388;9.986;2023-02-26T10:10:48;3.30;77.50
77582;DHT22;66726;52.388;9.986;2023-02-26T10:13:27;3.50;79.00
77582;DHT22;66726;52.388;9.986;2023-02-26T10:16:13;3.60;76.90
77582;DHT22;66726;52.388;9.986;2023-02-26T10:18:48;3.70;78.30
77582;DHT22;66726;52.388;9.986;2023-02-26T10:21:24;3.70;75.40
77582;DHT22;66726;52.388;9.986;2023-02-26T10:23:59;3.80;75.80
77582;DHT22;66726;52.388;9.986;2023-02-26T10:26:35;3.80;74.70
77582;DHT22;66726;52.388;9.986;2023-02-26T10:29:15;3.80;73.90
77582;DHT22;66726;52.388;9.986;2023-02-26T10:31:56;3.80;72.00
77582;DHT22;66726;52.388;9.986;2023-02-26T10:34:35;3.80;72.90
77582;DHT22;66726;52.388;9.986;2023-02-26T10:37:15;3.90;72.80
77582;DHT22;66726;52.388;9.986;2023-02-26T10:39:50;4.10;73.80
77582;DHT22;66726;52.388;9.986;2023-02-26T10:42:25;4.10;72.10
77582;DHT22;66726;52.388;9.986;2023-02-26T10:45:08;4.20;70.90
77582;DHT22;66726;52.388;9.986;2023-02-26T10:47:56;4.30;72.20
77582;DHT22;66726;52.388;9.986;2023-02-26T10:50:31;4.20;69.20
77582;DHT22;66726;52.388;9.986;2023-02-26T10:53:00;4.30;68.40
77582;DHT22;66726;52.388;9.986;2023-02-26T10:55:34;4.30;68.60
77582;DHT22;66726;52.388;9.986;2023-02-26T10:58:10;4.30;70.30
77582;DHT22;66726;52.388;9.986;2023-02-26T11:00:44;4.50;73.40
77582;DHT22;66726;52.388;9.986;2023-02-26T11:03:18;4.70;69.10
77582;DHT22;66726;52.388;9.986;2023-02-26T11:05:48;4.60;68.00
77582;DHT22;66726;52.388;9.986;2023-02-26T11:08:19;4.70;67.00
77582;DHT22;66726;52.388;9.986;2023-02-26T11:10:53;4.90;70.30
77582;DHT22;66726;52.388;9.986;2023-02-26T11:13:24;4.80;65.70
77582;DHT22;66726;52.388;9.986;2023-02-26T11:15:57;4.80;64.20
77582;DHT22;66726;52.388;9.986;2023-02-26T11:18:40;4.70;65.00
77582;DHT22;66726;52.388;9.986;2023-02-26T11:21:18;4.70;64.40
77582;DHT22;66726;52.388;9.986;2023-02-26T11:23:54;4.90;66.40
77582;DHT22;66726;52.388;9.986;2023-02-26T11:26:26;5.00;64.90
77582;DHT22;66726;52.388;9.986;2023-02-26T11:28:59;5.00;60.10
77582;DHT22;66726;52.388;9.986;2023-02-26T11:31:29;5.10;66.00
77582;DHT22;66726;52.388;9.986;2023-02-26T11:34:02;5.30;65.40
77582;DHT22;66726;52.388;9.986;2023-02-26T11:36:33;5.30;60.60
77582;DHT22;66726;52.388;9.986;2023-02-26T11:39:07;5.30;58.30
77582;DHT22;66726;52.388;9.986;2023-02-26T11:41:44;5.40;59.80
77582;DHT22;66726;52.388;9.986;2023-02-26T11:44:15;5.40;60.70
77582;DHT22;66726;52.388;9.986;2023-02-26T11:46:51;5.50;62.30
77582;DHT22;66726;52.388;9.986;2023-02-26T11:49:24;5.70;57.90
77582;DHT22;66726;52.388;9.986;2023-02-26T11:52:05;5.60;58.00
77582;DHT22;66726;52.388;9.986;2023-02-26T11:54:45;5.80;60.20
77582;DHT22;66726;52.388;9.986;2023-02-26T11:57:17;5.80;57.70
77582;DHT22;66726;52.388;9.986;2023-02-26T11:59:48;6.00;63.70
77582;DHT22;66726;52.388;9.986;2023-02-26T12:02:20;6.20;64.00
77582;DHT22;66726;52.388;9.986;2023-02-26T12:04:52;6.30;62.70
77582;DHT22;66726;52.388;9.986;2023-02-26T12:07:23;6.00;63.60
77582;DHT22;66726;52.388;9.986;2023-02-26T12:09:52;6.00;66.90
77582;DHT22;66726;52.388;9.986;2023-02-26T12:12:39;5.80;63.60
77582;DHT22;66726;52.388;9.986;2023-02-26T12:15:27;5.70;61.00
77582;DHT22;66726;52.388;9.986;2023-02-26T12:18:28;5.60;60.30
77582;DHT22;66726;52.388;9.986;2023-02-26T12:21:16;5.90;62.70
77582;DHT22;66726;52.388;9.986;2023-02-26T12:27:02;6.10;62.70
77582;DHT22;66726;52.388;9.986;2023-02-26T12:29:49;6.20;60.00
77582;DHT22;66726;52.388;9.986;2023-02-26T12:32:55;6.30;60.80
77582;DHT22;66726;52.388;9.986;2023-02-26T12:35:44;6.40;61.40
77582;DHT22;66726;52.388;9.986;2023-02-26T12:38:28;6.50;56.40
77582;DHT22;66726;52.388;9.986;2023-02-26T12:41:24;6.50;57.20
77582;DHT22;66726;52.388;9.986;2023-02-26T12:44:14;6.80;60.70
77582;DHT22;66726;52.388;9.986;2023-02-26T12:47:04;7.00;58.30
77582;DHT22;66726;52.388;9.986;2023-02-26T12:49:58;6.90;62.20
77582;DHT22;66726;52.388;9.986;2023-02-26T12:52:56;6.60;61.90
77582;DHT22;66726;52.388;9.986;2023-02-26T12:55:40;6.50;60.50
77582;DHT22;66726;52.388;9.986;2023-02-26T12:58:40;6.70;59.20
77582;DHT22;66726;52.388;9.986;2023-02-26T13:01:39;6.80;58.00
77582;DHT22;66726;52.388;9.986;2023-02-26T13:05:03;6.90;55.10
77582;DHT22;66726;52.388;9.986;2023-02-26T13:07:51;7.20;60.30
77582;DHT22;66726;52.388;9.986;2023-02-26T13:10:36;7.20;55.40
77582;DHT22;66726;52.388;9.986;2023-02-26T13:13:27;7.30;57.10
77582;DHT22;66726;52.388;9.986;2023-02-26T13:16:16;7.40;55.80
77582;DHT22;66726;52.388;9.986;2023-02-26T13:18:59;7.50;55.10
77582;DHT22;66726;52.388;9.986;2023-02-26T13:21:35;7.40;54.30
77582;DHT22;66726;52.388;9.986;2023-02-26T13:24:11;7.40;55.10
77582;DHT22;66726;52.388;9.986;2023-02-26T13:26:44;7.70;56.40
77582;DHT22;66726;52.388;9.986;2023-02-26T13:29:16;7.70;55.80
77582;DHT22;66726;52.388;9.986;2023-02-26T13:31:50;7.70;53.50
77582;DHT22;66726;52.388;9.986;2023-02-26T13:34:30;7.70;54.60
77582;DHT22;66726;52.388;9.986;2023-02-26T13:37:04;7.70;54.30
77582;DHT22;66726;52.388;9.986;2023-02-26T13:39:40;7.60;53.50
77582;DHT22;66726;52.388;9.986;2023-02-26T13:42:26;7.70;52.40
77582;DHT22;66726;52.388;9.986;2023-02-26T13:48:11;7.80;53.20
77582;DHT22;66726;52.388;9.986;2023-02-26T13:50:55;7.90;50.90
77582;DHT22;66726;52.388;9.986;2023-02-26T13:53:53;8.00;50.10
77582;DHT22;66726;52.388;9.986;2023-02-26T13:56:47;8.10;50.40
77582;DHT22;66726;52.388;9.986;2023-02-26T13:59:35;8.20;52.40
77582;DHT22;66726;52.388;9.986;2023-02-26T14:08:44;8.50;51.10
77582;DHT22;66726;52.388;9.986;2023-02-26T14:11:53;8.40;50.10
77582;DHT22;66726;52.388;9.986;2023-02-26T14:14:34;8.30;50.00
77582;DHT22;66726;52.388;9.986;2023-02-26T14:23:23;8.50;54.30
77582;DHT22;66726;52.388;9.986;2023-02-26T14:26:05;8.10;48.30
77582;DHT22;66726;52.388;9.986;2023-02-26T14:28:44;8.20;50.40
77582;DHT22;66726;52.388;9.986;2023-02-26T14:31:23;8.10;49.90
77582;DHT22;66726;52.388;9.986;2023-02-26T14:34:10;7.90;50.20
77582;DHT22;66726;52.388;9.986;2023-02-26T14:36:44;7.90;49.10
77582;DHT22;66726;52.388;9.986;2023-02-26T14:39:23;8.10;51.20
77582;DHT22;66726;52.388;9.986;2023-02-26T14:42:00;8.10;50.60
77582;DHT22;66726;52.388;9.986;2023-02-26T14:44:36;7.80;50.20
77582;DHT22;66726;52.388;9.986;2023-02-26T14:47:07;7.80;49.70
77582;DHT22;66726;52.388;9.986;2023-02-26T14:49:39;7.60;50.10
77582;DHT22;66726;52.388;9.986;2023-02-26T14:52:51;7.70;52.00
77582;DHT22;66726;52.388;9.986;2023-02-26T14:55:43;7.70;51.40
77582;DHT22;66726;52.388;9.986;2023-02-26T14:58:42;7.60;50.50
77582;DHT22;66726;52.388;9.986;2023-02-26T15:01:38;7.50;50.60
77582;DHT22;66726;52.388;9.986;2023-02-26T15:04:41;7.70;51.50
77582;DHT22;66726;52.388;9.986;2023-02-26T15:07:44;7.60;51.10
77582;DHT22;66726;52.388;9.986;2023-02-26T15:10:38;7.40;53.40
77582;DHT22;66726;52.388;9.986;2023-02-26T15:13:38;7.20;52.10
77582;DHT22;66726;52.388;9.986;2023-02-26T15:16:28;7.20;52.70
77582;DHT22;66726;52.388;9.986;2023-02-26T15:19:19;7.20;53.70
77582;DHT22;66726;52.388;9.986;2023-02-26T15:22:07;7.20;53.70
77582;DHT22;66726;52.388;9.986;2023-02-26T15:24:48;7.00;53.60
77582;DHT22;66726;52.388;9.986;2023-02-26T15:27:17;6.60;55.40
77582;DHT22;66726;52.388;9.986;2023-02-26T15:29:48;6.40;56.00
77582;DHT22;66726;52.388;9.986;2023-02-26T15:32:24;6.10;56.10
77582;DHT22;66726;52.388;9.986;2023-02-26T15:34:57;6.40;58.20
77582;DHT22;66726;52.388;9.986;2023-02-26T15:37:29;6.70;57.00
77582;DHT22;66726;52.388;9.986;2023-02-26T15:39:59;6.90;56.30
77582;DHT22;66726;52.388;9.986;2023-02-26T15:42:36;7.00;55.30
77582;DHT22;66726;52.388;9.986;2023-02-26T15:45:13;7.10;57.40
77582;DHT22;66726;52.388;9.986;2023-02-26T15:47:51;7.00;55.30
77582;DHT22;66726;52.388;9.986;2023-02-26T15:50:25;6.90;55.60
77582;DHT22;66726;52.388;9.986;2023-02-26T15:52:59;6.60;55.30
77582;DHT22;66726;52.388;9.986;2023-02-26T15:55:31;6.20;57.30
77582;DHT22;66726;52.388;9.986;2023-02-26T15:58:04;6.10;57.60
77582;DHT22;66726;52.388;9.986;2023-02-26T16:00:35;6.00;57.20
77582;DHT22;66726;52.388;9.986;2023-02-26T16:03:08;5.80;57.90
77582;DHT22;66726;52.388;9.986;2023-02-26T16:05:37;5.80;58.30
77582;DHT22;66726;52.388;9.986;2023-02-26T16:08:09;5.70;58.60
77582;DHT22;66726;52.388;9.986;2023-02-26T16:10:44;5.90;59.90
77582;DHT22;66726;52.388;9.986;2023-02-26T16:13:16;5.80;59.80
77582;DHT22;66726;52.388;9.986;2023-02-26T16:15:48;5.80;60.00
77582;DHT22;66726;52.388;9.986;2023-02-26T16:18:22;5.80;60.80
77582;DHT22;66726;52.388;9.986;2023-02-26T16:20:53;5.80;61.10
77582;DHT22;66726;52.388;9.986;2023-02-26T16:23:28;5.80;61.20
77582;DHT22;66726;52.388;9.986;2023-02-26T16:26:10;5.60;61.40
77582;DHT22;66726;52.388;9.986;2023-02-26T16:28:43;5.60;61.10
77582;DHT22;66726;52.388;9.986;2023-02-26T16:31:17;5.50;62.10
77582;DHT22;66726;52.388;9.986;2023-02-26T16:33:53;5.50;63.10
77582;DHT22;66726;52.388;9.986;2023-02-26T16:36:26;5.30;62.20
77582;DHT22;66726;52.388;9.986;2023-02-26T16:39:12;5.30;62.20
77582;DHT22;66726;52.388;9.986;2023-02-26T16:41:46;5.30;63.10
77582;DHT22;66726;52.388;9.986;2023-02-26T16:44:46;5.20;63.60
77582;DHT22;66726;52.388;9.986;2023-02-26T16:47:17;5.20;64.00
77582;DHT22;66726;52.388;9.986;2023-02-26T16:49:48;5.10;63.70
77582;DHT22;66726;52.388;9.986;2023-02-26T16:52:19;5.10;64.90
77582;DHT22;66726;52.388;9.986;2023-02-26T16:54:57;5.00;65.40